Aeroporto :
LOGIN :

Iscrizione | Disclaimer

   EN    FR    IT 

 










Sommario :    VFR   VFR Marginale   IFR   IFR Intensivo   IFR Molto Intensivo
Visibilità : 
Base nubi : 
>= 8 km
>= 3000ft
5 / 8 km
1000 / 3000 ft
1500m / 5 km
500 / 1000 ft
800 / 1500m
200 / 500 ft
< 800m
< 200 ft
Simboli :   Temporali  Nebbia  Neve Forte  Precipitazioni Forti  Vento > 20 kt
SIGMETs :   Varie  Temporali  Ghiacco  Turbolenza  Onda orograficha  Ceneri Vulcaniche






- Altitudine del aeroporto : 17 ft
- Codice IATA : DND


EGPN - Dundee

ULTIMO METAR :
  • 141320Z 34008KT 300V020 9999 FEW025 07/00 Q1009

METARs OBSOLETI :
  • 141250Z 34009KT 310V030 9999 FEW025 07/01 Q1008
  • 141220Z 35007KT 310V020 9999 FEW025 06/01 Q1008
  • 141150Z 33006KT 290V020 9999 FEW025 06/01 Q1008
  • 141120Z 31004KT 270V360 9999 FEW025 06/00 Q1008
  • 141050Z 28004KT 240V360 9999 FEW025 05/M00 Q1008

TAF TAF EGPN
Valido dal 14 a 12 ore il 14 a 21 ore UTC


141102Z 1412/1421 28007KT 9999 FEW030



MetMap, La meteo Aeronautica in un colpo d'occhio ! - Copyright ORBIFLY Dicembre 2007 - Disclaimer

ORBIFLY MET'MAP TEAM :

Programmazione e sviluppo : Alexandra Zaïnal
Concezione e sviluppo : Baudouin d'Aumeries
Co-Programmazione e sviluppo : Marc-Olivier Méhu
Supporto tecnico e logistico : Manuel Goepfert
Aiuto per la traduzione : Arnaldo La Scala

Contatto : metmap@orbifly.com




FONTI E CREDITI :

   NOAA